Weather observations for the past three days for
Sutton, Braxton County Airport
Imperial (Metric)
Date Time (edt) Wind (mph) Vis. (mi.) Weather Sky Cond. Temperature (ºF) Relative Humidity Wind Chill (°F) Heat Index (°F) Pressure Precipitation (in)
Air Dwpt 6 hour altimeter (in) sea level (mb) 1 hr 3 hr 6 hr
Max. Min.
06 02:15 Calm 10.00 Mostly Cloudy BKN080 BKN100 BKN130 60.3 50.4 70% 29.76 0.0
06 01:55 Calm 10.00 Overcast BKN090 OVC100 59.5 51.6 65.8 59.4 75% 29.77 0.0
06 01:35 Calm 10.00 Overcast BKN090 BKN100 OVC130 59.5 51.8 76% 29.77 0.0
06 01:15 Calm 10.00 Overcast BKN090 OVC110 60.8 51.6 72% 29.78 0.0
06 00:55 Calm 10.00 Overcast OVC080 61.7 51.3 69% 29.8 0.0
06 00:35 Calm 8.00 Overcast OVC080 61.7 51.1 68% 29.8 0.0
06 00:15 Calm 9.00 Overcast OVC080 62.1 51.1 67% 29.8 0.0
05 23:55 Calm 7.00 Overcast OVC085 60.6 53.2 77% 29.8 0.0
05 23:35 Calm 7.00 Overcast OVC090 60.8 53.2 76% 29.79 0.0
05 23:15 Calm 9.00 Overcast OVC090 61.5 52.3 72% 29.79 0.0
05 22:55 Calm 8.00 Overcast OVC090 61.7 52 71% 29.79 0.0
05 22:35 Calm 9.00 Overcast OVC090 61.7 53.2 74% 29.8 0.0
05 22:15 Calm 9.00 Overcast OVC095 62.1 52.3 71% 29.8 0.0
05 21:55 Calm 8.00 Overcast OVC095 62.4 52.3 70% 29.8 0.0
05 21:35 Calm 8.00 Overcast OVC100 63.3 51.3 65% 29.8 0.0
05 20:55 Calm 10.00 Overcast BKN100 OVC120 63 52.3 68% 29.82 0.0
05 20:35 Calm 10.00 Overcast OVC120 65.8 50 57% 29.82 0.0
05 20:15 Calm 10.00 Overcast BKN130 OVC150 63.1 52.7 69% 29.81 0.0
05 19:55 Calm 10.00 Overcast OVC150 64.9 53.2 75.7 64.9 66% 29.81 0.0
05 19:35 Calm 10.00 Overcast BKN160 OVC180 67.5 50.7 55% 29.8 0.0
05 19:15 Calm 10.00 Overcast BKN160 OVC180 72 45.7 39% 29.81 0.0
05 18:55 W 5 10.00 Mostly Cloudy SCT170 BKN200 72.7 45 37% 29.81 0.0
05 18:35 Vrbl 5 10.00 Partly Cloudy FEW210 SCT240 73.4 44.6 36% 29.81 0.0
05 18:15 Vrbl 5 10.00 Fair CLR 74.3 44.2 34% 29.81 0.0
05 17:55 Vrbl 6 10.00 Fair CLR 74.3 44.6 35% 29.82 0.0
05 17:35 W 5 10.00 Fair CLR 74.3 44.8 35% 29.82 0.0
05 17:15 Vrbl 7 10.00 A Few Clouds FEW190 74.3 44.2 34% 29.83 0.0
05 16:55 Vrbl 6 10.00 A Few Clouds FEW360 74.7 44.8 35% 29.83 0.0
05 16:35 SW 8 G 18 10.00 A Few Clouds FEW320 74.8 43.7 33% 29.83 0.0
05 16:15 W 7 G 17 10.00 Fair CLR 75.7 45.1 34% 77 29.84 0.0
05 15:55 Vrbl 7 10.00 A Few Clouds FEW370 75.2 43.5 32% 77 29.85 0.0
05 15:35 SW 7 G 17 10.00 A Few Clouds FEW280 75.2 44.6 34% 77 29.85 0.0
05 15:15 W 9 G 20 10.00 Partly Cloudy FEW270 SCT360 75 45 34% 77 29.85 0.0
05 14:55 SW 8 10.00 Partly Cloudy FEW070 SCT330 SCT360 SCT380 75.2 45.5 35% 77 29.86 0.0
05 14:35 W 9 10.00 A Few Clouds FEW070 75 45.7 35% 77 29.86 0.0
05 14:15 W 5 G 17 10.00 Partly Cloudy FEW260 SCT300 74.8 45.1 35% 29.86 0.0
05 13:55 W 10 G 18 10.00 Partly Cloudy FEW270 SCT370 74.3 45.5 74.5 64.9 36% 29.86 0.0
05 13:35 W 7 G 17 10.00 Partly Cloudy FEW280 SCT360 SCT380 74.3 45.9 36% 29.87 0.0
05 13:15 SW 10 G 18 10.00 A Few Clouds FEW250 74.3 45.5 36% 29.88 0.0
05 12:55 W 12 G 18 10.00 Mostly Cloudy SCT065 BKN280 BKN310 BKN350 74.1 46.6 38% 29.89 0.0
05 12:35 SW 14 G 18 10.00 Mostly Cloudy BKN065 BKN280 73.4 46.8 39% 29.89 0.0
05 12:15 SW 8 10.00 Mostly Cloudy BKN065 73.2 46.6 39% 29.89 0.0
05 11:55 W 10 G 23 10.00 Partly Cloudy SCT065 72 46.6 41% 29.9 0.0
05 11:35 SW 6 G 16 10.00 Partly Cloudy SCT060 SCT330 73 47.7 41% 29.9 0.0
05 11:15 W 9 G 20 10.00 Partly Cloudy SCT060 72.3 47.7 42% 29.9 0.0
05 10:50 Vrbl 7 10.00 Fair CLR 71.8 47.1 42% 29.9 0.0
05 10:35 SW 8 10.00 Fair CLR 71.1 46 41% 29.9 0.0
05 09:55 W 9 10.00 Mostly Cloudy BKN065 BKN080 69.8 45.9 42% 29.91 0.0
05 09:40 Vrbl 6 10.00 Mostly Cloudy BKN065 BKN080 69.4 46.2 44% 29.91 0.0
05 09:15 W 9 10.00 A Few Clouds FEW070 68.9 46 44% 29.91 0.0
05 08:55 Calm 10.00 Partly Cloudy SCT075 67.6 47.3 48% 29.9 0.0
05 08:35 Calm 10.00 Partly Cloudy SCT070 66.7 46.9 49% 29.91 0.0
05 08:15 Calm 10.00 Mostly Cloudy BKN070 65.5 46.4 50% 29.91 0.0
05 07:55 Calm 10.00 Mostly Cloudy BKN070 63.3 48.2 64 55 58% 29.9 0.0
05 07:35 Calm 9.00 Mostly Cloudy BKN070 63 47.7 58% 29.9 0.0
05 07:15 Calm 10.00 Mostly Cloudy BKN070 63 46.6 55% 29.9 0.0
05 06:55 Calm 9.00 Mostly Cloudy BKN070 62.6 46.2 55% 29.89 0.0
05 06:35 Calm 10.00 Overcast OVC070 63.1 46.2 54% 29.89 0.0
05 05:55 Calm 10.00 Overcast OVC070 62.4 46.4 56% 29.87 0.0
05 05:35 Calm 10.00 Mostly Cloudy BKN070 62.6 46 55% 29.87 0.0
05 05:15 Calm 10.00 A Few Clouds FEW075 58.6 45.9 63% 29.87 0.0
05 04:55 Calm 10.00 A Few Clouds FEW070 57.4 45.9 66% 29.86 0.0
05 04:35 Calm 10.00 A Few Clouds FEW070 56.8 45.9 67% 29.86 0.0
05 04:15 Calm 10.00 A Few Clouds FEW075 57.4 45.9 66% 29.86 0.0
05 03:55 Calm 10.00 Partly Cloudy SCT080 58.1 46 64% 29.85 0.0
05 03:35 Calm 10.00 A Few Clouds FEW080 57 46.2 67% 29.85 0.0
05 03:15 Calm 10.00 A Few Clouds FEW075 59 45.1 60% 29.84 0.0
05 02:55 Calm 10.00 A Few Clouds FEW075 57 46.2 67% 29.84 0.0
05 02:35 Calm 10.00 A Few Clouds FEW080 59.2 45.7 61% 29.84 0.0
05 02:15 Calm 10.00 Partly Cloudy SCT080 58.5 46.6 65% 29.84 0.0
05 01:55 Calm 10.00 Partly Cloudy SCT080 57 46.2 61.9 50.4 67% 29.84 0.0
05 01:35 Calm 10.00 Mostly Cloudy BKN080 56.5 47.1 71% 29.84 0.0
05 01:15 Calm 10.00 Mostly Cloudy BKN080 55.9 48.2 75% 29.84 0.0
05 00:55 Calm 9.00 Mostly Cloudy SCT070 BKN160 57.2 48.6 73% 29.84 0.0
05 00:35 Calm 9.00 Mostly Cloudy BKN150 BKN170 54.7 49.8 84% 29.83 0.0
05 00:15 Calm 10.00 Overcast OVC140 54.3 50 85% 29.83 0.0
04 23:55 Calm 9.00 Overcast OVC140 52 49.8 92% 29.82 0.0
04 23:35 Calm 9.00 Mostly Cloudy BKN150 51.6 49.1 91% 29.83 0.0
04 23:15 Calm 10.00 A Few Clouds FEW160 50.5 48.4 92% 29.83 0.0
04 22:55 Calm 10.00 Fair CLR 50.7 48.7 93% 29.83 0.0
04 22:35 Calm 9.00 Fair CLR 51.3 48.7 91% 29.83 0.0
04 22:15 Calm 10.00 Fair CLR 52 49.3 91% 29.82 0.0
04 21:55 Calm 9.00 Fair CLR 53.2 49.6 88% 29.82 0.0
04 21:35 Calm 10.00 Fair CLR 54.1 50.2 87% 29.82 0.0
04 21:15 Calm 9.00 Fair CLR 56.1 50.9 83% 29.82 0.0
04 20:55 Calm 9.00 Fair CLR 55.6 50.9 84% 29.82 0.0
04 20:15 Calm 9.00 Fair CLR 58.6 51.6 78% 29.82 0.0
04 19:55 Calm 9.00 Mostly Cloudy BKN090 63.3 53.1 72.1 63.3 69% 29.83 0.0
04 19:35 Calm 9.00 Mostly Cloudy BKN095 67.1 51.3 57% 29.83 0.0
04 19:15 Calm 9.00 Partly Cloudy SCT095 69.6 47.1 45% 29.83 0.0
04 18:55 Vrbl 5 10.00 A Few Clouds FEW100 70.5 46.9 43% 29.84 0.0
04 18:35 W 6 10.00 Fair CLR 70.9 46.4 42% 29.84 0.0
04 18:15 Vrbl 5 10.00 Partly Cloudy SCT100 70.9 46.6 42% 29.84 0.0
04 17:55 Vrbl 7 10.00 Overcast SCT110 OVC140 70.3 46.6 43% 29.84 0.0
04 17:35 W 8 9.00 Mostly Cloudy FEW110 BKN140 70 46.6 43% 29.84 0.0
04 17:15 Vrbl 7 10.00 Mostly Cloudy FEW070 SCT095 BKN120 72.1 46.6 40% 29.83 0.0
04 16:55 Vrbl 5 9.00 Mostly Cloudy BKN110 BKN160 71.1 46.2 41% 29.83 0.0
04 16:35 Vrbl 6 10.00 Mostly Cloudy BKN110 BKN170 71.8 46.2 40% 29.83 0.0
04 16:15 Calm 10.00 Mostly Cloudy BKN100 BKN130 70.7 45.1 40% 29.83 0.0
04 15:55 SW 8 10.00 Mostly Cloudy FEW070 SCT085 BKN100 71.4 45.5 40% 29.84 0.0
04 15:35 W 6 G 17 10.00 Partly Cloudy FEW110 SCT340 SCT370 71.6 46.2 40% 29.84 0.0
04 15:15 W 10 10.00 Partly Cloudy FEW110 SCT370 71.6 45.1 39% 29.84 0.0
04 14:55 Vrbl 6 10.00 Partly Cloudy FEW110 SCT370 72 46.8 41% 29.84 0.0
04 14:35 SW 8 10.00 A Few Clouds FEW370 71.2 45.7 40% 29.85 0.0
04 14:15 W 8 G 16 10.00 Fair CLR 70.5 45.9 41% 29.86 0.0
04 13:55 Vrbl 5 10.00 Fair CLR 69.6 45.9 69.6 51.4 43% 29.87 0.0
04 13:35 Vrbl 3 10.00 Fair CLR 68.2 45.5 44% 29.88 0.0
04 13:15 Vrbl 7 10.00 A Few Clouds FEW350 66.6 45.3 47% 29.89 0.0
04 12:55 SW 8 10.00 Partly Cloudy FEW090 SCT110 64.6 44.4 48% 29.91 0.0
04 12:35 Vrbl 5 10.00 Mostly Cloudy FEW070 SCT095 BKN120 62.6 45 53% 29.92 0.0
04 12:15 Vrbl 5 10.00 Overcast OVC080 62.8 44.6 52% 29.92 0.0
04 11:55 W 8 10.00 Overcast BKN060 OVC085 62.1 44.2 52% 29.94 0.0
04 11:35 Vrbl 5 10.00 Overcast OVC065 62.4 43.7 51% 29.95 0.0
04 11:15 W 8 10.00 Overcast SCT060 BKN080 OVC095 62.1 43 50% 29.95 0.0
04 10:55 W 8 10.00 Mostly Cloudy BKN080 BKN090 62.6 42.8 49% 29.94 0.0
04 10:35 Vrbl 3 10.00 Mostly Cloudy BKN075 62.1 41.5 47% 29.94 0.0
04 10:15 SW 9 G 18 10.00 Fair CLR 61.5 40.3 46% 29.94 0.0
04 09:55 SW 10 G 17 10.00 Mostly Cloudy BKN075 BKN095 61.2 39.6 45% 29.94 0.0
04 09:35 Vrbl 5 10.00 Mostly Cloudy SCT075 BKN095 60.4 39.4 46% 29.94 0.0
04 09:15 Vrbl 6 10.00 A Few Clouds FEW085 59.7 39 46% 29.94 0.0
04 08:55 Calm 10.00 A Few Clouds FEW085 57.6 38.5 49% 29.93 0.0
04 08:35 Calm 10.00 Fair CLR 56.5 39 52% 29.93 0.0
04 08:15 Calm 10.00 Fair CLR 53.2 40.8 63% 29.94 0.0
04 07:55 Calm 10.00 A Few Clouds FEW080 49.5 42.8 51.3 43.2 78% 29.93 0.0
04 07:35 Calm 10.00 Mostly Cloudy BKN075 BKN095 47.3 44.1 89% 29.94 0.0
04 07:15 Calm 9.00 Mostly Cloudy BKN070 46.4 42.3 86% 29.94 0.0
04 06:55 Calm 10.00 Overcast OVC070 45.1 42.6 91% 29.94 0.0
04 06:35 Calm 10.00 Overcast OVC070 45 43.2 93% 29.94 0.0
04 06:15 Calm 10.00 Overcast BKN075 OVC100 45.5 43.7 93% 29.94 0.0
04 05:55 Calm 10.00 Overcast OVC080 45 43.3 94% 29.95 0.0
04 05:35 Calm 10.00 Overcast BKN075 OVC090 44.2 43.2 96% 29.95 0.0
04 05:15 Calm 10.00 Mostly Cloudy BKN075 44.1 42.6 95% 29.96 0.0
04 04:55 Calm 10.00 Overcast BKN075 BKN085 OVC110 45 43.5 95% 29.96 0.0
04 04:35 Calm 10.00 Overcast BKN075 OVC110 45.9 43.9 93% 29.96 0.0
04 04:15 Calm 10.00 Overcast OVC075 47.1 43.9 89% 29.96 0.0
04 03:55 Calm 10.00 Overcast OVC070 47.8 43 83% 29.96 0.0
04 03:35 Calm 10.00 Overcast OVC075 48.6 42.1 78% 29.96 0.0
04 03:15 Calm 10.00 Overcast OVC070 48.2 42.4 81% 29.97 0.0
04 02:55 Calm 9.00 Light Rain OVC070 48.9 41 74% 29.97 0.0
04 02:35 Calm 10.00 Overcast OVC075 50.4 38.3 63% 29.99 0.0
04 02:15 Calm 10.00 Overcast OVC080 50.9 36 57% 29.99 0.0
04 01:55 Vrbl 5 10.00 Overcast OVC080 50.7 33.6 55 41.9 52% 29.99 0.0
04 01:35 Vrbl 3 10.00 Overcast OVC075 46.2 37 70% 29.99 0.0
04 01:15 Calm 10.00 Overcast OVC075 44.6 40.6 86% 29.99 0.0
04 00:55 Calm 10.00 Mostly Cloudy BKN070 41.9 38.8 89% 29.98 0.0
04 00:35 Calm 10.00 Mostly Cloudy BKN075 42.4 39.6 90% 29.98 0.0
04 00:15 Calm 10.00 Overcast OVC080 43.2 39.4 87% 29.98 0.0
03 23:55 Calm 10.00 Overcast OVC085 44.2 39.4 83% 29.98 0.0
03 23:35 Calm 10.00 Overcast OVC085 45 39.6 81% 29.98 0.0
03 23:15 Calm 10.00 Overcast OVC090 45.7 40.3 82% 29.98 0.0
03 22:55 Calm 10.00 Mostly Cloudy BKN090 45.9 38.8 77% 29.99 0.0
03 22:35 Calm 10.00 Partly Cloudy SCT090 44.4 38.3 79% 29.98 0.0
03 22:15 Calm 10.00 Mostly Cloudy BKN100 48.2 39 71% 29.98 0.0
03 21:55 Calm 10.00 Overcast OVC090 50.2 39 66% 29.99 0.0
03 21:35 Calm 10.00 Overcast OVC090 50.2 38.5 64% 29.99 0.0
03 21:15 Calm 10.00 Overcast OVC100 50.7 37 60% 29.98 0.0
03 20:55 Calm 10.00 Overcast OVC100 51.4 37 58% 29.98 0.0
03 20:35 Calm 10.00 Overcast OVC100 51.4 36.3 56% 29.97 0.0
03 20:15 Calm 10.00 Overcast OVC110 52.3 36.7 55% 29.98 0.0
03 19:55 Calm 10.00 Overcast OVC110 55.8 27.1 59.4 54.5 33% 29.98 0.0
03 19:35 W 5 10.00 Overcast OVC120 56.1 26.8 32% 29.98 0.0
03 19:15 W 5 10.00 Overcast OVC120 56.5 25.9 31% 29.98 0.0
03 18:35 Vrbl 7 10.00 Fair CLR 58.1 26.2 29% 29.99 0.0
03 18:15 Vrbl 6 10.00 Fair CLR 58.1 24.8 28% 29.99 0.0
03 17:55 Vrbl 7 10.00 Fair CLR 58.8 25.3 28% 29.99 0.0
03 17:35 Vrbl 5 10.00 Fair CLR 58.5 25.2 28% 29.98 0.0
03 17:15 Vrbl 7 10.00 Fair CLR 59.4 26.6 29% 29.99 0.0
03 16:55 W 8 10.00 Fair CLR 58.6 25.9 29% 30 0.0
03 16:35 Vrbl 3 10.00 Fair CLR 58.5 26.1 29% 30 0.0
03 16:15 Vrbl 3 10.00 Fair CLR 57.7 25 28% 30.01 0.0
03 15:55 Vrbl 7 10.00 Fair CLR 57.2 25.5 30% 30.02 0.0
03 15:35 W 8 10.00 Fair CLR 57.4 25.5 29% 30.04 0.0
03 15:15 Vrbl 6 10.00 A Few Clouds FEW070 57.4 25.9 30% 30.04 0.0
03 14:55 Vrbl 7 10.00 Partly Cloudy SCT070 57.2 26.8 31% 30.05 0.0
03 14:35 Vrbl 5 10.00 Partly Cloudy SCT070 55 25.9 32% 30.06 0.0
03 14:15 SW 10 G 17 9.00 A Few Clouds FEW070 54.9 25.5 32% 30.06 0.0
03 13:55 Vrbl 6 10.00 A Few Clouds FEW065 54.7 25.5 55.2 36.5 32% 30.07 0.0
03 13:35 Vrbl 7 10.00 Fair CLR 55 26.8 34% 30.07 0.0
03 13:15 SW 8 10.00 Fair CLR 53.8 26.6 35% 30.08 0.0
03 12:55 Vrbl 3 10.00 Fair CLR 53.1 26.2 35% 30.09 0.0
03 12:35 Vrbl 7 10.00 Fair CLR 52.3 26.4 37% 30.09 0.0
03 12:15 Vrbl 7 10.00 A Few Clouds FEW055 52 26.8 38% 30.11 0.0
03 11:55 Vrbl 3 10.00 Partly Cloudy SCT050 50.5 26.4 39% 30.12 0.0
03 11:35 Vrbl 7 10.00 Mostly Cloudy BKN050 48.9 27.1 43% 46 30.12 0.0
03 11:15 Vrbl 7 10.00 Partly Cloudy SCT050 49.1 28.8 46% 47 30.12 0.0
03 10:55 NW 8 10.00 Fair CLR 48.6 27.5 44% 45 30.12 0.0
03 10:35 W 7 10.00 Fair CLR 48 26.6 43% 45 30.12 0.0
03 10:15 Vrbl 6 10.00 Fair CLR 45.7 29.8 54% 43 30.13 0.0
03 09:55 Vrbl 5 10.00 Fair CLR 45 30.9 58% 43 30.13 0.0
03 09:35 Vrbl 6 10.00 Fair CLR 44.2 32.4 63% 41 30.13 0.0
03 09:15 Calm 10.00 Fair CLR 42.6 33.1 69% 30.12 0.0
03 08:55 Calm 10.00 Fair CLR 40.6 34.3 78% 30.12 0.0
03 08:35 Vrbl 3 10.00 Fair CLR 39.2 34.3 83% 30.12 0.0
03 08:15 Calm 10.00 Fair CLR 37.8 35.2 91% 30.11 0.0
03 07:55 Calm 10.00 Fair CLR 34.9 34.9 34.9 28.4 100% 30.1 0.0
03 07:35 Calm 10.00 Fair CLR 31.8 31.8 100% 30.1 0.0
03 07:15 Calm 2.00 Fog/Mist CLR 30.4 30.4 100% 30.09 0.0
03 06:55 Calm 4.00 Fog/Mist CLR 28.9 28.9 100% 30.08 0.0
03 06:35 Calm 1.25 Fog/Mist CLR 29.5 29.5 100% 30.08 0.0
03 06:15 Calm 2.00 Fog/Mist CLR 29.1 29.1 100% 30.07 0.0
03 05:55 Calm 8.00 Fair CLR 29.8 29.8 100% 30.06 0.0
03 05:35 Calm 10.00 Fair CLR 28.9 28.9 100% 30.06 0.0
03 05:15 Calm 10.00 Fair CLR 29.5 29.5 100% 30.06 0.0
03 04:55 Calm 10.00 Fair CLR 29.7 29.7 100% 30.05 0.0
03 04:35 Calm 10.00 Fair CLR 30.4 30.4 100% 30.05 0.0
03 04:15 Calm 10.00 Fair CLR 29.7 29.5 99% 30.05 0.0
03 03:55 Calm 10.00 Fair CLR 31.1 30.7 99% 30.05 0.0
03 03:35 Calm 10.00 Fair CLR 30.2 29.8 99% 30.04 0.0
03 03:15 Calm 10.00 Partly Cloudy SCT070 31.5 30.7 97% 30.04 0.0
03 02:55 Calm 10.00 Mostly Cloudy BKN070 31.6 30.7 96% 30.03 0.0
Date Time (edt) Wind (mph) Vis. (mi.) Weather Sky Cond. Air Dwpt Max. Min. Relative Humidity Wind Chill (°F) Heat Index (°F) altimeter (in) sea level (mb) 1 hr 3 hr 6 hr
6 hour
Temperature (ºF) Pressure Precipitation (in)